sensor_id;sensor_type;location;lat;lon;timestamp;P1;durP1;ratioP1;P2;durP2;ratioP2
38479;SDS011;62333;51.980;5.934;2024-01-25T00:01:19;18.02;;;3.95;;
38479;SDS011;62333;51.980;5.934;2024-01-25T00:03:44;17.48;;;3.78;;
38479;SDS011;62333;51.980;5.934;2024-01-25T00:06:10;20.05;;;4.15;;
38479;SDS011;62333;51.980;5.934;2024-01-25T00:08:36;16.45;;;3.30;;
38479;SDS011;62333;51.980;5.934;2024-01-25T00:11:02;14.55;;;3.03;;
38479;SDS011;62333;51.980;5.934;2024-01-25T00:13:28;15.38;;;3.88;;
38479;SDS011;62333;51.980;5.934;2024-01-25T00:15:54;15.32;;;3.50;;
38479;SDS011;62333;51.980;5.934;2024-01-25T00:18:20;21.38;;;3.33;;
38479;SDS011;62333;51.980;5.934;2024-01-25T00:20:45;23.73;;;4.82;;
38479;SDS011;62333;51.980;5.934;2024-01-25T00:23:11;22.80;;;4.65;;
38479;SDS011;62333;51.980;5.934;2024-01-25T00:25:37;13.93;;;2.85;;
38479;SDS011;62333;51.980;5.934;2024-01-25T00:28:03;18.00;;;3.38;;
38479;SDS011;62333;51.980;5.934;2024-01-25T00:30:28;24.60;;;5.95;;
38479;SDS011;62333;51.980;5.934;2024-01-25T00:32:54;15.57;;;3.05;;
38479;SDS011;62333;51.980;5.934;2024-01-25T00:35:21;22.75;;;5.10;;
38479;SDS011;62333;51.980;5.934;2024-01-25T00:37:47;17.33;;;2.90;;
38479;SDS011;62333;51.980;5.934;2024-01-25T00:40:13;18.10;;;4.15;;
38479;SDS011;62333;51.980;5.934;2024-01-25T00:42:42;17.88;;;3.50;;
38479;SDS011;62333;51.980;5.934;2024-01-25T00:45:10;21.75;;;5.72;;
38479;SDS011;62333;51.980;5.934;2024-01-25T00:47:36;19.25;;;5.57;;
38479;SDS011;62333;51.980;5.934;2024-01-25T00:50:03;18.13;;;3.20;;
38479;SDS011;62333;51.980;5.934;2024-01-25T00:52:29;20.58;;;4.63;;
38479;SDS011;62333;51.980;5.934;2024-01-25T00:54:55;15.90;;;2.72;;
38479;SDS011;62333;51.980;5.934;2024-01-25T00:57:21;11.93;;;2.85;;
38479;SDS011;62333;51.980;5.934;2024-01-25T00:59:47;11.57;;;3.83;;
38479;SDS011;62333;51.980;5.934;2024-01-25T01:02:13;14.70;;;2.35;;
38479;SDS011;62333;51.980;5.934;2024-01-25T01:04:39;23.60;;;2.97;;
38479;SDS011;62333;51.980;5.934;2024-01-25T01:07:05;17.10;;;3.85;;
38479;SDS011;62333;51.980;5.934;2024-01-25T01:09:32;17.05;;;3.95;;
38479;SDS011;62333;51.980;5.934;2024-01-25T01:11:58;18.88;;;3.30;;
38479;SDS011;62333;51.980;5.934;2024-01-25T01:14:24;15.48;;;3.65;;
38479;SDS011;62333;51.980;5.934;2024-01-25T01:16:49;14.75;;;3.40;;
38479;SDS011;62333;51.980;5.934;2024-01-25T01:19:15;12.23;;;3.72;;
38479;SDS011;62333;51.980;5.934;2024-01-25T01:21:42;14.93;;;3.22;;
38479;SDS011;62333;51.980;5.934;2024-01-25T01:24:09;15.68;;;2.63;;
38479;SDS011;62333;51.980;5.934;2024-01-25T01:26:38;12.65;;;3.42;;
38479;SDS011;62333;51.980;5.934;2024-01-25T01:29:06;18.95;;;3.10;;
38479;SDS011;62333;51.980;5.934;2024-01-25T01:31:33;13.60;;;2.60;;
38479;SDS011;62333;51.980;5.934;2024-01-25T01:33:58;19.48;;;3.83;;
38479;SDS011;62333;51.980;5.934;2024-01-25T01:36:24;14.57;;;3.08;;
38479;SDS011;62333;51.980;5.934;2024-01-25T01:38:50;13.10;;;2.72;;
38479;SDS011;62333;51.980;5.934;2024-01-25T01:41:15;14.05;;;3.45;;
38479;SDS011;62333;51.980;5.934;2024-01-25T01:43:41;10.95;;;1.80;;
38479;SDS011;62333;51.980;5.934;2024-01-25T01:46:11;17.27;;;3.28;;
38479;SDS011;62333;51.980;5.934;2024-01-25T01:48:42;12.15;;;3.28;;
38479;SDS011;62333;51.980;5.934;2024-01-25T01:51:08;16.65;;;3.05;;
38479;SDS011;62333;51.980;5.934;2024-01-25T01:53:35;13.73;;;3.42;;
38479;SDS011;62333;51.980;5.934;2024-01-25T01:56:01;17.73;;;4.28;;
38479;SDS011;62333;51.980;5.934;2024-01-25T01:58:28;20.73;;;3.22;;
38479;SDS011;62333;51.980;5.934;2024-01-25T02:00:55;16.33;;;3.40;;
38479;SDS011;62333;51.980;5.934;2024-01-25T02:03:22;18.45;;;5.07;;
38479;SDS011;62333;51.980;5.934;2024-01-25T02:05:47;20.95;;;4.85;;
38479;SDS011;62333;51.980;5.934;2024-01-25T02:08:13;13.32;;;3.58;;
38479;SDS011;62333;51.980;5.934;2024-01-25T02:10:40;20.33;;;4.65;;
38479;SDS011;62333;51.980;5.934;2024-01-25T02:13:05;14.02;;;3.55;;
38479;SDS011;62333;51.980;5.934;2024-01-25T02:15:31;20.63;;;3.20;;
38479;SDS011;62333;51.980;5.934;2024-01-25T02:17:57;18.58;;;2.67;;
38479;SDS011;62333;51.980;5.934;2024-01-25T02:20:23;17.77;;;3.65;;
38479;SDS011;62333;51.980;5.934;2024-01-25T02:22:48;19.50;;;3.47;;
38479;SDS011;62333;51.980;5.934;2024-01-25T02:25:14;18.73;;;3.20;;
38479;SDS011;62333;51.980;5.934;2024-01-25T02:27:40;12.15;;;2.40;;
38479;SDS011;62333;51.980;5.934;2024-01-25T02:30:06;15.57;;;3.28;;
38479;SDS011;62333;51.980;5.934;2024-01-25T02:32:32;14.73;;;2.83;;
38479;SDS011;62333;51.980;5.934;2024-01-25T02:34:58;11.57;;;2.50;;
38479;SDS011;62333;51.980;5.934;2024-01-25T02:37:24;11.65;;;4.13;;
38479;SDS011;62333;51.980;5.934;2024-01-25T02:39:50;20.63;;;3.33;;
38479;SDS011;62333;51.980;5.934;2024-01-25T02:42:16;14.55;;;2.95;;
38479;SDS011;62333;51.980;5.934;2024-01-25T02:44:42;15.75;;;2.90;;
38479;SDS011;62333;51.980;5.934;2024-01-25T02:47:08;17.27;;;3.63;;
38479;SDS011;62333;51.980;5.934;2024-01-25T02:49:34;13.20;;;2.85;;
38479;SDS011;62333;51.980;5.934;2024-01-25T02:52:00;13.52;;;2.85;;
38479;SDS011;62333;51.980;5.934;2024-01-25T02:54:26;11.45;;;1.98;;
38479;SDS011;62333;51.980;5.934;2024-01-25T02:56:52;16.23;;;3.63;;
38479;SDS011;62333;51.980;5.934;2024-01-25T02:59:17;16.00;;;3.45;;
38479;SDS011;62333;51.980;5.934;2024-01-25T03:01:43;19.52;;;3.60;;
38479;SDS011;62333;51.980;5.934;2024-01-25T03:04:10;13.77;;;2.92;;
38479;SDS011;62333;51.980;5.934;2024-01-25T03:06:36;13.40;;;2.97;;
38479;SDS011;62333;51.980;5.934;2024-01-25T03:09:02;11.07;;;2.58;;
38479;SDS011;62333;51.980;5.934;2024-01-25T03:11:29;20.92;;;3.85;;
38479;SDS011;62333;51.980;5.934;2024-01-25T03:13:55;16.08;;;4.13;;
38479;SDS011;62333;51.980;5.934;2024-01-25T03:16:21;15.73;;;3.22;;
38479;SDS011;62333;51.980;5.934;2024-01-25T03:18:47;14.18;;;1.92;;
38479;SDS011;62333;51.980;5.934;2024-01-25T03:21:13;17.00;;;3.53;;
38479;SDS011;62333;51.980;5.934;2024-01-25T03:23:38;13.18;;;3.33;;
38479;SDS011;62333;51.980;5.934;2024-01-25T03:26:04;14.90;;;3.58;;
38479;SDS011;62333;51.980;5.934;2024-01-25T03:28:30;12.15;;;2.80;;
38479;SDS011;62333;51.980;5.934;2024-01-25T03:30:56;27.55;;;5.65;;
38479;SDS011;62333;51.980;5.934;2024-01-25T03:33:22;13.50;;;3.70;;
38479;SDS011;62333;51.980;5.934;2024-01-25T03:35:47;17.02;;;2.80;;
38479;SDS011;62333;51.980;5.934;2024-01-25T03:38:13;16.60;;;4.15;;
38479;SDS011;62333;51.980;5.934;2024-01-25T03:40:39;17.42;;;4.13;;
38479;SDS011;62333;51.980;5.934;2024-01-25T03:43:05;14.60;;;4.85;;
38479;SDS011;62333;51.980;5.934;2024-01-25T03:45:30;25.27;;;3.42;;
38479;SDS011;62333;51.980;5.934;2024-01-25T03:47:57;23.65;;;4.55;;
38479;SDS011;62333;51.980;5.934;2024-01-25T03:50:23;19.65;;;3.55;;
38479;SDS011;62333;51.980;5.934;2024-01-25T03:52:49;17.63;;;2.95;;
38479;SDS011;62333;51.980;5.934;2024-01-25T03:55:15;15.30;;;4.15;;
38479;SDS011;62333;51.980;5.934;2024-01-25T03:57:40;21.90;;;4.35;;
38479;SDS011;62333;51.980;5.934;2024-01-25T04:00:07;13.30;;;2.38;;
38479;SDS011;62333;51.980;5.934;2024-01-25T04:02:34;18.45;;;2.92;;
38479;SDS011;62333;51.980;5.934;2024-01-25T04:04:59;18.85;;;3.90;;
38479;SDS011;62333;51.980;5.934;2024-01-25T04:07:25;11.30;;;2.97;;
38479;SDS011;62333;51.980;5.934;2024-01-25T04:09:51;19.20;;;3.92;;
38479;SDS011;62333;51.980;5.934;2024-01-25T04:12:16;13.45;;;2.50;;
38479;SDS011;62333;51.980;5.934;2024-01-25T04:14:42;14.32;;;2.17;;
38479;SDS011;62333;51.980;5.934;2024-01-25T04:17:07;16.15;;;1.98;;
38479;SDS011;62333;51.980;5.934;2024-01-25T04:19:33;15.60;;;3.78;;
38479;SDS011;62333;51.980;5.934;2024-01-25T04:22:00;17.02;;;3.80;;
38479;SDS011;62333;51.980;5.934;2024-01-25T04:24:26;22.40;;;4.75;;
38479;SDS011;62333;51.980;5.934;2024-01-25T04:26:52;14.93;;;3.75;;
38479;SDS011;62333;51.980;5.934;2024-01-25T04:29:17;16.65;;;3.55;;
38479;SDS011;62333;51.980;5.934;2024-01-25T04:31:43;14.50;;;2.33;;
38479;SDS011;62333;51.980;5.934;2024-01-25T04:34:10;15.88;;;2.38;;
38479;SDS011;62333;51.980;5.934;2024-01-25T04:36:38;23.88;;;4.88;;
38479;SDS011;62333;51.980;5.934;2024-01-25T04:39:03;11.60;;;2.80;;
38479;SDS011;62333;51.980;5.934;2024-01-25T04:41:29;18.98;;;3.28;;
38479;SDS011;62333;51.980;5.934;2024-01-25T04:43:55;17.52;;;3.60;;
38479;SDS011;62333;51.980;5.934;2024-01-25T04:46:20;20.38;;;4.10;;
38479;SDS011;62333;51.980;5.934;2024-01-25T04:48:46;13.88;;;2.30;;
38479;SDS011;62333;51.980;5.934;2024-01-25T04:51:18;15.40;;;2.85;;
38479;SDS011;62333;51.980;5.934;2024-01-25T04:53:47;22.42;;;3.50;;
38479;SDS011;62333;51.980;5.934;2024-01-25T04:56:13;16.27;;;4.47;;
38479;SDS011;62333;51.980;5.934;2024-01-25T04:58:39;21.48;;;4.03;;
38479;SDS011;62333;51.980;5.934;2024-01-25T05:01:04;21.35;;;3.00;;
38479;SDS011;62333;51.980;5.934;2024-01-25T05:03:32;15.68;;;4.05;;
38479;SDS011;62333;51.980;5.934;2024-01-25T05:05:58;21.27;;;3.72;;
38479;SDS011;62333;51.980;5.934;2024-01-25T05:08:24;23.23;;;5.32;;
38479;SDS011;62333;51.980;5.934;2024-01-25T05:10:49;24.17;;;5.43;;
38479;SDS011;62333;51.980;5.934;2024-01-25T05:13:15;24.08;;;3.00;;
38479;SDS011;62333;51.980;5.934;2024-01-25T05:15:40;19.33;;;4.75;;
38479;SDS011;62333;51.980;5.934;2024-01-25T05:18:06;12.48;;;2.95;;
38479;SDS011;62333;51.980;5.934;2024-01-25T05:20:32;14.52;;;2.95;;
38479;SDS011;62333;51.980;5.934;2024-01-25T05:22:59;12.00;;;3.60;;
38479;SDS011;62333;51.980;5.934;2024-01-25T05:25:28;12.10;;;2.75;;
38479;SDS011;62333;51.980;5.934;2024-01-25T05:27:55;23.30;;;4.43;;
38479;SDS011;62333;51.980;5.934;2024-01-25T05:30:21;12.90;;;3.47;;
38479;SDS011;62333;51.980;5.934;2024-01-25T05:32:47;16.63;;;3.47;;
38479;SDS011;62333;51.980;5.934;2024-01-25T05:35:18;22.67;;;4.53;;
38479;SDS011;62333;51.980;5.934;2024-01-25T05:37:44;20.83;;;4.55;;
38479;SDS011;62333;51.980;5.934;2024-01-25T05:40:10;16.55;;;3.97;;
38479;SDS011;62333;51.980;5.934;2024-01-25T05:42:36;15.98;;;3.58;;
38479;SDS011;62333;51.980;5.934;2024-01-25T05:45:02;23.55;;;5.15;;
38479;SDS011;62333;51.980;5.934;2024-01-25T05:47:28;24.40;;;4.82;;
38479;SDS011;62333;51.980;5.934;2024-01-25T05:49:55;20.00;;;4.95;;
38479;SDS011;62333;51.980;5.934;2024-01-25T05:52:21;19.08;;;3.53;;
38479;SDS011;62333;51.980;5.934;2024-01-25T05:54:47;27.88;;;6.22;;
38479;SDS011;62333;51.980;5.934;2024-01-25T05:57:14;18.98;;;3.65;;
38479;SDS011;62333;51.980;5.934;2024-01-25T05:59:39;18.55;;;3.70;;
38479;SDS011;62333;51.980;5.934;2024-01-25T06:02:05;14.73;;;3.35;;
38479;SDS011;62333;51.980;5.934;2024-01-25T06:04:31;15.02;;;2.97;;
38479;SDS011;62333;51.980;5.934;2024-01-25T06:06:57;20.00;;;3.95;;
38479;SDS011;62333;51.980;5.934;2024-01-25T06:09:23;15.68;;;3.45;;
38479;SDS011;62333;51.980;5.934;2024-01-25T06:11:49;18.80;;;3.78;;
38479;SDS011;62333;51.980;5.934;2024-01-25T06:14:16;20.45;;;6.05;;
38479;SDS011;62333;51.980;5.934;2024-01-25T06:16:42;21.27;;;3.03;;
38479;SDS011;62333;51.980;5.934;2024-01-25T06:19:08;13.85;;;4.63;;
38479;SDS011;62333;51.980;5.934;2024-01-25T06:21:34;18.50;;;4.90;;
38479;SDS011;62333;51.980;5.934;2024-01-25T06:24:03;18.67;;;5.95;;
38479;SDS011;62333;51.980;5.934;2024-01-25T06:26:30;13.95;;;3.90;;
38479;SDS011;62333;51.980;5.934;2024-01-25T06:28:55;25.73;;;4.72;;
38479;SDS011;62333;51.980;5.934;2024-01-25T06:31:24;23.42;;;3.63;;
38479;SDS011;62333;51.980;5.934;2024-01-25T06:33:50;24.10;;;4.50;;
38479;SDS011;62333;51.980;5.934;2024-01-25T06:36:18;14.68;;;5.38;;
38479;SDS011;62333;51.980;5.934;2024-01-25T06:38:44;19.80;;;5.20;;
38479;SDS011;62333;51.980;5.934;2024-01-25T06:41:10;21.73;;;4.18;;
38479;SDS011;62333;51.980;5.934;2024-01-25T06:43:35;17.88;;;4.93;;
38479;SDS011;62333;51.980;5.934;2024-01-25T06:46:01;19.50;;;4.20;;
38479;SDS011;62333;51.980;5.934;2024-01-25T06:48:27;17.73;;;3.80;;
38479;SDS011;62333;51.980;5.934;2024-01-25T06:50:52;12.60;;;3.55;;
38479;SDS011;62333;51.980;5.934;2024-01-25T06:53:18;17.85;;;3.33;;
38479;SDS011;62333;51.980;5.934;2024-01-25T06:55:44;22.77;;;3.67;;
38479;SDS011;62333;51.980;5.934;2024-01-25T06:58:10;18.30;;;4.95;;
38479;SDS011;62333;51.980;5.934;2024-01-25T07:00:35;18.90;;;3.58;;
38479;SDS011;62333;51.980;5.934;2024-01-25T07:03:03;16.13;;;3.08;;
38479;SDS011;62333;51.980;5.934;2024-01-25T07:05:29;13.23;;;3.65;;
38479;SDS011;62333;51.980;5.934;2024-01-25T07:07:58;20.85;;;5.00;;
38479;SDS011;62333;51.980;5.934;2024-01-25T07:10:24;19.55;;;4.82;;
38479;SDS011;62333;51.980;5.934;2024-01-25T07:12:50;17.67;;;4.00;;
38479;SDS011;62333;51.980;5.934;2024-01-25T07:15:16;15.60;;;4.43;;
38479;SDS011;62333;51.980;5.934;2024-01-25T07:17:42;15.65;;;3.45;;
38479;SDS011;62333;51.980;5.934;2024-01-25T07:20:08;11.65;;;4.70;;
38479;SDS011;62333;51.980;5.934;2024-01-25T07:22:34;20.67;;;4.38;;
38479;SDS011;62333;51.980;5.934;2024-01-25T07:24:59;14.85;;;3.25;;
38479;SDS011;62333;51.980;5.934;2024-01-25T07:27:25;12.57;;;3.45;;
38479;SDS011;62333;51.980;5.934;2024-01-25T07:29:51;16.33;;;3.30;;
38479;SDS011;62333;51.980;5.934;2024-01-25T07:32:17;16.70;;;4.78;;
38479;SDS011;62333;51.980;5.934;2024-01-25T07:34:43;14.57;;;3.38;;
38479;SDS011;62333;51.980;5.934;2024-01-25T07:37:09;19.40;;;4.70;;
38479;SDS011;62333;51.980;5.934;2024-01-25T07:39:36;13.63;;;4.28;;
38479;SDS011;62333;51.980;5.934;2024-01-25T07:42:02;17.73;;;5.32;;
38479;SDS011;62333;51.980;5.934;2024-01-25T07:44:27;16.77;;;3.05;;
38479;SDS011;62333;51.980;5.934;2024-01-25T07:46:53;15.27;;;2.80;;
38479;SDS011;62333;51.980;5.934;2024-01-25T07:49:19;19.33;;;4.93;;
38479;SDS011;62333;51.980;5.934;2024-01-25T07:51:44;16.33;;;4.88;;
38479;SDS011;62333;51.980;5.934;2024-01-25T07:54:10;20.10;;;4.05;;
38479;SDS011;62333;51.980;5.934;2024-01-25T07:56:37;17.20;;;4.65;;
38479;SDS011;62333;51.980;5.934;2024-01-25T07:59:03;15.90;;;4.15;;
38479;SDS011;62333;51.980;5.934;2024-01-25T08:01:28;14.18;;;4.78;;
38479;SDS011;62333;51.980;5.934;2024-01-25T08:03:54;21.98;;;3.45;;
38479;SDS011;62333;51.980;5.934;2024-01-25T08:06:20;18.25;;;3.90;;
38479;SDS011;62333;51.980;5.934;2024-01-25T08:08:46;17.42;;;3.90;;
38479;SDS011;62333;51.980;5.934;2024-01-25T08:11:12;16.85;;;3.97;;
38479;SDS011;62333;51.980;5.934;2024-01-25T08:13:37;19.13;;;4.32;;
38479;SDS011;62333;51.980;5.934;2024-01-25T08:16:03;16.92;;;4.68;;
38479;SDS011;62333;51.980;5.934;2024-01-25T08:18:29;20.02;;;5.63;;
38479;SDS011;62333;51.980;5.934;2024-01-25T08:20:55;18.77;;;3.65;;
38479;SDS011;62333;51.980;5.934;2024-01-25T08:23:21;25.65;;;5.25;;
38479;SDS011;62333;51.980;5.934;2024-01-25T08:25:47;17.50;;;4.80;;
38479;SDS011;62333;51.980;5.934;2024-01-25T08:28:13;21.00;;;4.47;;
38479;SDS011;62333;51.980;5.934;2024-01-25T08:30:38;16.52;;;3.97;;
38479;SDS011;62333;51.980;5.934;2024-01-25T08:33:04;24.13;;;5.97;;
38479;SDS011;62333;51.980;5.934;2024-01-25T08:35:30;22.77;;;5.18;;
38479;SDS011;62333;51.980;5.934;2024-01-25T08:37:55;15.23;;;4.10;;
38479;SDS011;62333;51.980;5.934;2024-01-25T08:40:21;21.70;;;4.75;;
38479;SDS011;62333;51.980;5.934;2024-01-25T08:42:47;19.30;;;3.63;;
38479;SDS011;62333;51.980;5.934;2024-01-25T08:45:13;25.95;;;5.22;;
38479;SDS011;62333;51.980;5.934;2024-01-25T08:47:38;18.90;;;4.57;;
38479;SDS011;62333;51.980;5.934;2024-01-25T08:50:04;21.05;;;5.93;;
38479;SDS011;62333;51.980;5.934;2024-01-25T08:52:35;16.83;;;4.00;;
38479;SDS011;62333;51.980;5.934;2024-01-25T08:55:06;24.25;;;5.40;;
38479;SDS011;62333;51.980;5.934;2024-01-25T08:57:32;21.75;;;6.05;;
38479;SDS011;62333;51.980;5.934;2024-01-25T08:59:58;18.98;;;4.07;;
38479;SDS011;62333;51.980;5.934;2024-01-25T09:02:26;24.80;;;5.53;;
38479;SDS011;62333;51.980;5.934;2024-01-25T09:04:54;19.35;;;4.45;;
38479;SDS011;62333;51.980;5.934;2024-01-25T09:07:20;26.70;;;7.40;;
38479;SDS011;62333;51.980;5.934;2024-01-25T09:09:46;20.42;;;3.33;;
38479;SDS011;62333;51.980;5.934;2024-01-25T09:12:11;37.03;;;5.05;;
38479;SDS011;62333;51.980;5.934;2024-01-25T09:14:38;19.63;;;4.25;;
38479;SDS011;62333;51.980;5.934;2024-01-25T09:17:04;19.15;;;4.70;;
38479;SDS011;62333;51.980;5.934;2024-01-25T09:19:30;22.30;;;4.75;;
38479;SDS011;62333;51.980;5.934;2024-01-25T09:21:56;18.70;;;4.70;;
38479;SDS011;62333;51.980;5.934;2024-01-25T09:24:24;22.45;;;4.35;;
38479;SDS011;62333;51.980;5.934;2024-01-25T09:26:50;25.27;;;4.82;;
38479;SDS011;62333;51.980;5.934;2024-01-25T09:29:16;11.88;;;3.58;;
38479;SDS011;62333;51.980;5.934;2024-01-25T09:31:42;21.80;;;4.50;;
38479;SDS011;62333;51.980;5.934;2024-01-25T09:34:08;19.17;;;3.60;;
38479;SDS011;62333;51.980;5.934;2024-01-25T09:36:33;18.35;;;3.65;;
38479;SDS011;62333;51.980;5.934;2024-01-25T09:38:59;20.38;;;5.43;;
38479;SDS011;62333;51.980;5.934;2024-01-25T09:41:24;20.48;;;5.07;;
38479;SDS011;62333;51.980;5.934;2024-01-25T09:43:50;16.73;;;4.60;;
38479;SDS011;62333;51.980;5.934;2024-01-25T09:46:16;17.67;;;3.88;;
38479;SDS011;62333;51.980;5.934;2024-01-25T09:48:43;20.20;;;5.40;;
38479;SDS011;62333;51.980;5.934;2024-01-25T09:51:11;22.02;;;5.38;;
38479;SDS011;62333;51.980;5.934;2024-01-25T09:53:38;26.20;;;5.22;;
38479;SDS011;62333;51.980;5.934;2024-01-25T09:56:08;20.05;;;4.25;;
38479;SDS011;62333;51.980;5.934;2024-01-25T09:58:53;22.60;;;5.85;;
38479;SDS011;62333;51.980;5.934;2024-01-25T10:01:19;16.80;;;3.97;;
38479;SDS011;62333;51.980;5.934;2024-01-25T10:03:45;23.10;;;6.97;;
38479;SDS011;62333;51.980;5.934;2024-01-25T10:06:14;23.30;;;6.25;;
38479;SDS011;62333;51.980;5.934;2024-01-25T10:08:41;17.38;;;3.92;;
38479;SDS011;62333;51.980;5.934;2024-01-25T10:11:07;32.33;;;5.78;;
38479;SDS011;62333;51.980;5.934;2024-01-25T10:13:40;17.95;;;4.85;;
38479;SDS011;62333;51.980;5.934;2024-01-25T10:16:06;18.92;;;4.28;;
38479;SDS011;62333;51.980;5.934;2024-01-25T10:18:35;19.55;;;5.28;;
38479;SDS011;62333;51.980;5.934;2024-01-25T10:21:01;20.38;;;4.13;;
38479;SDS011;62333;51.980;5.934;2024-01-25T10:23:28;16.20;;;3.85;;
38479;SDS011;62333;51.980;5.934;2024-01-25T10:25:53;14.32;;;3.88;;
38479;SDS011;62333;51.980;5.934;2024-01-25T10:28:21;18.70;;;5.25;;
38479;SDS011;62333;51.980;5.934;2024-01-25T10:30:59;15.52;;;4.07;;
38479;SDS011;62333;51.980;5.934;2024-01-25T10:33:26;18.38;;;3.47;;
38479;SDS011;62333;51.980;5.934;2024-01-25T10:35:56;22.90;;;5.18;;
38479;SDS011;62333;51.980;5.934;2024-01-25T10:38:31;21.58;;;5.18;;
38479;SDS011;62333;51.980;5.934;2024-01-25T10:41:00;24.02;;;4.32;;
38479;SDS011;62333;51.980;5.934;2024-01-25T10:43:27;16.23;;;4.05;;
38479;SDS011;62333;51.980;5.934;2024-01-25T10:45:55;22.55;;;6.15;;
38479;SDS011;62333;51.980;5.934;2024-01-25T10:48:23;16.02;;;2.65;;
38479;SDS011;62333;51.980;5.934;2024-01-25T10:50:51;19.33;;;4.40;;
38479;SDS011;62333;51.980;5.934;2024-01-25T10:53:17;20.65;;;5.10;;
38479;SDS011;62333;51.980;5.934;2024-01-25T10:55:44;22.13;;;5.53;;
38479;SDS011;62333;51.980;5.934;2024-01-25T10:58:12;16.33;;;6.20;;
38479;SDS011;62333;51.980;5.934;2024-01-25T11:00:38;20.70;;;4.75;;
38479;SDS011;62333;51.980;5.934;2024-01-25T11:03:04;26.27;;;5.72;;
38479;SDS011;62333;51.980;5.934;2024-01-25T11:05:31;18.65;;;3.95;;
38479;SDS011;62333;51.980;5.934;2024-01-25T11:07:57;17.63;;;3.72;;
38479;SDS011;62333;51.980;5.934;2024-01-25T11:10:27;20.20;;;4.90;;
38479;SDS011;62333;51.980;5.934;2024-01-25T11:12:59;17.02;;;4.55;;
38479;SDS011;62333;51.980;5.934;2024-01-25T11:15:35;19.38;;;4.30;;
38479;SDS011;62333;51.980;5.934;2024-01-25T11:18:02;17.80;;;3.67;;
38479;SDS011;62333;51.980;5.934;2024-01-25T11:20:31;19.30;;;3.58;;
38479;SDS011;62333;51.980;5.934;2024-01-25T11:22:58;20.42;;;4.53;;
38479;SDS011;62333;51.980;5.934;2024-01-25T11:25:30;16.38;;;3.55;;
38479;SDS011;62333;51.980;5.934;2024-01-25T11:27:57;19.15;;;5.40;;
38479;SDS011;62333;51.980;5.934;2024-01-25T11:30:23;22.63;;;4.78;;
38479;SDS011;62333;51.980;5.934;2024-01-25T11:32:50;18.83;;;3.65;;
38479;SDS011;62333;51.980;5.934;2024-01-25T11:35:16;19.35;;;4.53;;
38479;SDS011;62333;51.980;5.934;2024-01-25T11:37:42;19.42;;;3.97;;
38479;SDS011;62333;51.980;5.934;2024-01-25T11:40:09;20.45;;;3.83;;
38479;SDS011;62333;51.980;5.934;2024-01-25T11:42:36;18.40;;;4.40;;
38479;SDS011;62333;51.980;5.934;2024-01-25T11:45:02;14.98;;;4.68;;
38479;SDS011;62333;51.980;5.934;2024-01-25T11:47:28;17.65;;;4.57;;
38479;SDS011;62333;51.980;5.934;2024-01-25T11:49:54;13.10;;;3.75;;
38479;SDS011;62333;51.980;5.934;2024-01-25T11:52:20;25.65;;;5.53;;
38479;SDS011;62333;51.980;5.934;2024-01-25T11:54:45;19.05;;;4.43;;
38479;SDS011;62333;51.980;5.934;2024-01-25T11:57:11;26.15;;;5.80;;
38479;SDS011;62333;51.980;5.934;2024-01-25T11:59:37;14.38;;;3.00;;
38479;SDS011;62333;51.980;5.934;2024-01-25T12:02:02;17.02;;;6.30;;
38479;SDS011;62333;51.980;5.934;2024-01-25T12:04:29;23.92;;;3.97;;
38479;SDS011;62333;51.980;5.934;2024-01-25T12:06:55;19.30;;;4.18;;
38479;SDS011;62333;51.980;5.934;2024-01-25T12:09:20;16.08;;;4.10;;
38479;SDS011;62333;51.980;5.934;2024-01-25T12:11:49;23.30;;;6.35;;
38479;SDS011;62333;51.980;5.934;2024-01-25T12:14:16;15.23;;;4.47;;
38479;SDS011;62333;51.980;5.934;2024-01-25T12:16:42;20.33;;;7.38;;
38479;SDS011;62333;51.980;5.934;2024-01-25T12:19:07;12.38;;;2.97;;
38479;SDS011;62333;51.980;5.934;2024-01-25T12:21:33;24.60;;;4.03;;
38479;SDS011;62333;51.980;5.934;2024-01-25T12:23:59;17.30;;;4.05;;
38479;SDS011;62333;51.980;5.934;2024-01-25T12:26:25;19.92;;;4.05;;
38479;SDS011;62333;51.980;5.934;2024-01-25T12:28:51;25.17;;;5.45;;
38479;SDS011;62333;51.980;5.934;2024-01-25T12:31:16;22.70;;;7.18;;
38479;SDS011;62333;51.980;5.934;2024-01-25T12:33:42;15.27;;;4.07;;
38479;SDS011;62333;51.980;5.934;2024-01-25T12:36:09;21.63;;;4.78;;
38479;SDS011;62333;51.980;5.934;2024-01-25T12:38:34;16.60;;;3.45;;
38479;SDS011;62333;51.980;5.934;2024-01-25T12:41:00;18.63;;;5.40;;
38479;SDS011;62333;51.980;5.934;2024-01-25T12:43:26;26.67;;;6.82;;
38479;SDS011;62333;51.980;5.934;2024-01-25T12:45:52;24.92;;;6.10;;
38479;SDS011;62333;51.980;5.934;2024-01-25T12:48:17;15.65;;;3.78;;
38479;SDS011;62333;51.980;5.934;2024-01-25T12:50:43;18.60;;;4.30;;
38479;SDS011;62333;51.980;5.934;2024-01-25T12:53:12;26.58;;;6.15;;
38479;SDS011;62333;51.980;5.934;2024-01-25T12:55:39;20.48;;;4.85;;
38479;SDS011;62333;51.980;5.934;2024-01-25T12:58:05;16.90;;;4.22;;
38479;SDS011;62333;51.980;5.934;2024-01-25T13:00:30;17.30;;;4.38;;
38479;SDS011;62333;51.980;5.934;2024-01-25T13:02:56;13.25;;;3.60;;
38479;SDS011;62333;51.980;5.934;2024-01-25T13:05:22;19.02;;;4.45;;
38479;SDS011;62333;51.980;5.934;2024-01-25T13:07:48;21.50;;;5.90;;
38479;SDS011;62333;51.980;5.934;2024-01-25T13:10:14;19.75;;;4.05;;
38479;SDS011;62333;51.980;5.934;2024-01-25T13:12:40;20.67;;;5.20;;
38479;SDS011;62333;51.980;5.934;2024-01-25T13:15:06;23.30;;;6.28;;
38479;SDS011;62333;51.980;5.934;2024-01-25T13:17:34;19.33;;;5.97;;
38479;SDS011;62333;51.980;5.934;2024-01-25T13:20:01;12.55;;;3.20;;
38479;SDS011;62333;51.980;5.934;2024-01-25T13:22:27;17.50;;;4.68;;
38479;SDS011;62333;51.980;5.934;2024-01-25T13:24:55;18.05;;;4.88;;
38479;SDS011;62333;51.980;5.934;2024-01-25T13:27:20;16.60;;;4.80;;
38479;SDS011;62333;51.980;5.934;2024-01-25T13:29:46;17.45;;;5.10;;
38479;SDS011;62333;51.980;5.934;2024-01-25T13:32:11;22.13;;;6.88;;
38479;SDS011;62333;51.980;5.934;2024-01-25T13:34:37;22.30;;;7.25;;
38479;SDS011;62333;51.980;5.934;2024-01-25T13:37:03;26.48;;;5.45;;
38479;SDS011;62333;51.980;5.934;2024-01-25T13:39:29;19.65;;;6.82;;
38479;SDS011;62333;51.980;5.934;2024-01-25T13:41:54;23.15;;;5.45;;
38479;SDS011;62333;51.980;5.934;2024-01-25T13:44:21;28.55;;;7.95;;
38479;SDS011;62333;51.980;5.934;2024-01-25T13:46:47;18.40;;;5.60;;
38479;SDS011;62333;51.980;5.934;2024-01-25T13:49:12;22.33;;;6.97;;
38479;SDS011;62333;51.980;5.934;2024-01-25T13:51:38;23.77;;;7.25;;
38479;SDS011;62333;51.980;5.934;2024-01-25T13:54:04;16.38;;;6.07;;
38479;SDS011;62333;51.980;5.934;2024-01-25T13:56:29;19.48;;;6.53;;
38479;SDS011;62333;51.980;5.934;2024-01-25T13:58:55;26.02;;;6.63;;
38479;SDS011;62333;51.980;5.934;2024-01-25T14:01:21;21.95;;;6.90;;
38479;SDS011;62333;51.980;5.934;2024-01-25T14:03:46;23.23;;;6.20;;
38479;SDS011;62333;51.980;5.934;2024-01-25T14:06:12;23.85;;;7.22;;
38479;SDS011;62333;51.980;5.934;2024-01-25T14:08:38;21.10;;;6.75;;
38479;SDS011;62333;51.980;5.934;2024-01-25T14:11:04;30.40;;;8.15;;
38479;SDS011;62333;51.980;5.934;2024-01-25T14:13:31;18.38;;;4.78;;
38479;SDS011;62333;51.980;5.934;2024-01-25T14:15:57;32.08;;;9.07;;
38479;SDS011;62333;51.980;5.934;2024-01-25T14:18:24;26.40;;;8.65;;
38479;SDS011;62333;51.980;5.934;2024-01-25T14:20:51;26.05;;;9.93;;
38479;SDS011;62333;51.980;5.934;2024-01-25T14:23:17;30.65;;;12.18;;
38479;SDS011;62333;51.980;5.934;2024-01-25T14:25:43;34.13;;;13.23;;
38479;SDS011;62333;51.980;5.934;2024-01-25T14:28:10;49.58;;;15.40;;